Time;durP1;ratioP1;P1;durP2;ratioP2;P2;SDS_P1;SDS_P2;PMS_P1;PMS_P2;Temp;Humidity;BMP_temperature;BMP_pressure;BME280_temperature;BME280_humidity;BME280_pressure;Samples;Min_cycle;Max_cycle;Signal;HPM_P1;HPM_P2
2023/06/12 00:01:03;;;;;;;1.20;1.10;;;;;;;15.33;40.78;101553.72;5125086;28;20049;-65
2023/06/12 00:03:29;;;;;;;5.57;1.85;;;;;;;15.24;41.85;101559.88;5125359;28;20143;-64
2023/06/12 00:05:58;;;;;;;1.92;1.50;;;;;;;15.06;42.24;101572.28;5125203;28;20184;-66
2023/06/12 00:08:26;;;;;;;1.13;1.00;;;;;;;14.78;42.96;101566.31;5106913;28;20165;-65
2023/06/12 00:10:51;;;;;;;1.50;1.23;;;;;;;14.65;43.19;101574.25;5125125;28;20028;-65
2023/06/12 00:13:17;;;;;;;1.17;1.00;;;;;;;14.56;42.88;101572.59;5125212;28;20023;-66
2023/06/12 00:15:42;;;;;;;2.15;1.30;;;;;;;14.52;43.78;101575.25;5124980;28;20107;-65
2023/06/12 00:18:08;;;;;;;1.92;1.65;;;;;;;14.48;44.04;101575.25;5125499;28;20110;-65
2023/06/12 00:20:33;;;;;;;5.72;1.60;;;;;;;14.48;44.27;101571.75;5124678;28;20058;-64
2023/06/12 00:22:59;;;;;;;1.40;1.08;;;;;;;14.43;44.78;101571.78;5125140;28;20042;-65
2023/06/12 00:25:26;;;;;;;1.73;1.40;;;;;;;14.36;45.03;101573.56;5106782;28;20083;-65
2023/06/12 00:27:51;;;;;;;1.35;1.00;;;;;;;14.36;45.04;101570.09;5125260;28;20024;-64
2023/06/12 00:30:17;;;;;;;2.88;1.42;;;;;;;14.38;45.79;101582.28;5125112;28;20031;-65
2023/06/12 00:32:42;;;;;;;1.42;1.00;;;;;;;14.33;45.75;101568.34;5125228;28;20055;-65
2023/06/12 00:35:08;;;;;;;2.00;1.00;;;;;;;14.34;45.98;101575.34;5124754;28;20087;-66
2023/06/12 00:37:33;;;;;;;3.50;1.45;;;;;;;14.33;45.95;101578.81;5124995;28;20026;-65
2023/06/12 00:39:59;;;;;;;1.05;0.93;;;;;;;14.31;46.22;101577.97;5128506;28;20104;-64
2023/06/12 00:42:47;;;;;;;1.70;1.13;;;;;;;14.27;45.99;101578.84;5128938;28;20471;-65
2023/06/12 00:45:14;;;;;;;6.13;1.40;;;;;;;14.28;45.88;101590.16;5128893;28;20379;-65
2023/06/12 00:47:40;;;;;;;2.97;1.65;;;;;;;14.22;46.57;101588.44;5128779;28;20020;-65
2023/06/12 00:50:09;;;;;;;1.80;1.13;;;;;;;14.19;46.97;101594.56;5110019;28;20031;-64
2023/06/12 00:52:35;;;;;;;3.75;1.70;;;;;;;14.17;46.98;101595.44;5128554;28;20023;-64
2023/06/12 00:55:02;;;;;;;3.33;1.38;;;;;;;14.09;46.91;101588.50;5128505;28;20027;-66
2023/06/12 00:57:27;;;;;;;1.60;1.05;;;;;;;14.09;47.68;101588.50;5110118;28;20022;-65
2023/06/12 00:59:53;;;;;;;1.10;0.90;;;;;;;14.07;47.64;101592.88;5128516;28;20024;-65
2023/06/12 01:02:21;;;;;;;6.18;1.05;;;;;;;13.99;47.25;101597.25;5110166;28;20054;-64
2023/06/12 01:04:49;;;;;;;1.90;1.10;;;;;;;13.93;47.06;101589.44;5128283;28;20027;-65
2023/06/12 01:07:38;;;;;;;1.58;1.10;;;;;;;13.93;47.38;101602.50;5109806;28;20027;-65
2023/06/12 01:10:19;;;;;;;4.22;1.60;;;;;;;13.88;47.59;101597.28;5109997;28;20055;-66
2023/06/12 01:12:45;;;;;;;6.28;1.58;;;;;;;13.82;47.72;101598.16;5127935;28;20034;-65
2023/06/12 01:15:12;;;;;;;6.13;1.70;;;;;;;13.74;48.44;101597.31;5128202;28;20090;-66
2023/06/12 01:17:40;;;;;;;1.58;1.25;;;;;;;13.69;49.86;101602.53;5128163;28;20026;-65
2023/06/12 01:20:10;;;;;;;2.20;1.40;;;;;;;13.59;50.30;101588.66;5127793;28;20063;-65
2023/06/12 01:22:41;;;;;;;6.15;1.25;;;;;;;13.55;50.57;101596.47;5128071;28;20043;-65
2023/06/12 01:25:28;;;;;;;2.13;1.40;;;;;;;13.47;50.93;101602.56;5127993;28;20043;-65
2023/06/12 01:28:32;;;;;;;2.97;1.20;;;;;;;13.37;51.62;101604.31;5127732;28;20428;-65
2023/06/12 01:31:18;;;;;;;2.05;1.05;;;;;;;13.28;51.82;101606.91;5127722;28;20015;-65
2023/06/12 01:33:54;;;;;;;1.98;1.48;;;;;;;13.20;51.87;101603.44;5128005;28;20113;-66
2023/06/12 01:36:24;;;;;;;1.48;1.02;;;;;;;13.16;51.56;101601.72;5127704;28;20027;-65
2023/06/12 01:38:55;;;;;;;2.42;1.52;;;;;;;13.11;52.08;101607.81;5127710;28;20047;-64
2023/06/12 01:41:22;;;;;;;3.78;1.40;;;;;;;13.14;51.83;101612.16;5127497;28;20019;-64
2023/06/12 01:43:47;;;;;;;2.50;1.63;;;;;;;13.09;52.01;101604.31;5127627;28;20476;-65
2023/06/12 01:46:12;;;;;;;2.08;1.33;;;;;;;13.04;52.03;101595.63;5127437;28;20027;-65
2023/06/12 01:48:40;;;;;;;2.17;1.35;;;;;;;13.07;52.42;101600.84;5127606;28;20080;-65
2023/06/12 01:51:05;;;;;;;2.13;1.27;;;;;;;13.11;53.00;101601.72;5126816;28;20061;-64
2023/06/12 01:53:31;;;;;;;1.65;1.08;;;;;;;12.92;52.62;101585.19;5127200;28;20023;-65
2023/06/12 01:55:57;;;;;;;3.33;1.40;;;;;;;13.03;53.05;101606.94;5127240;28;20053;-65
2023/06/12 01:58:22;;;;;;;4.15;1.80;;;;;;;13.00;53.31;101604.31;5127391;28;20360;-65
2023/06/12 02:00:48;;;;;;;3.78;1.25;;;;;;;12.93;54.06;101603.44;5127299;28;20026;-66
2023/06/12 02:03:13;;;;;;;2.92;1.38;;;;;;;12.88;53.82;101603.44;5127106;28;20019;-65
2023/06/12 02:05:38;;;;;;;1.33;1.10;;;;;;;12.87;53.89;101614.75;5126960;28;20057;-65
2023/06/12 02:08:04;;;;;;;2.33;1.60;;;;;;;12.78;53.90;101601.66;5127227;28;20475;-65
2023/06/12 02:10:29;;;;;;;2.67;1.65;;;;;;;12.79;54.14;101600.81;5127281;28;20027;-65
2023/06/12 02:12:55;;;;;;;2.05;1.23;;;;;;;12.75;54.02;101609.47;5108689;28;20028;-65
2023/06/12 02:15:20;;;;;;;2.63;1.70;;;;;;;12.70;53.77;101616.44;5108426;28;20024;-65
2023/06/12 02:17:46;;;;;;;9.43;1.70;;;;;;;12.67;54.24;101611.22;5127086;28;20532;-65
2023/06/12 02:20:11;;;;;;;1.90;1.50;;;;;;;12.66;54.02;101609.47;5107997;28;20047;-64
2023/06/12 02:22:37;;;;;;;1.42;1.13;;;;;;;12.63;54.44;101606.00;5126877;28;20027;-65
2023/06/12 02:25:02;;;;;;;4.18;1.65;;;;;;;12.61;54.53;101602.53;5126815;28;20031;-64
2023/06/12 02:27:28;;;;;;;2.65;1.52;;;;;;;12.59;54.49;101603.38;5126523;28;20027;-64
2023/06/12 02:29:53;;;;;;;1.83;1.42;;;;;;;12.59;54.62;101608.56;5108379;28;20023;-64
2023/06/12 02:32:19;;;;;;;3.38;2.30;;;;;;;12.59;54.72;101611.19;5126760;28;20027;-65
2023/06/12 02:34:44;;;;;;;2.80;1.63;;;;;;;12.55;54.61;101610.31;5126500;28;20106;-65
2023/06/12 02:37:10;;;;;;;6.05;2.15;;;;;;;12.52;54.70;101615.53;5126688;28;20012;-66
2023/06/12 02:39:36;;;;;;;1.23;1.10;;;;;;;12.47;54.53;101619.84;5126480;28;20024;-65
2023/06/12 02:42:01;;;;;;;2.15;1.30;;;;;;;12.49;54.49;101623.34;5126358;28;20497;-65
2023/06/12 02:44:27;;;;;;;4.00;1.63;;;;;;;12.46;54.41;101616.34;5126477;28;20035;-64
2023/06/12 02:47:01;;;;;;;2.05;1.75;;;;;;;12.47;54.22;101609.44;5126144;28;20031;-65
2023/06/12 02:49:29;;;;;;;2.08;1.60;;;;;;;12.44;54.17;101615.50;5107669;28;20037;-65
2023/06/12 02:51:55;;;;;;;2.97;1.80;;;;;;;12.42;54.62;101611.13;5126284;28;20030;-65
2023/06/12 02:54:22;;;;;;;2.67;1.77;;;;;;;12.35;54.65;101608.50;5126255;28;20015;-65
2023/06/12 02:56:47;;;;;;;2.30;1.70;;;;;;;12.35;54.63;101608.50;5107899;28;20025;-66
2023/06/12 02:59:18;;;;;;;1.88;1.38;;;;;;;12.34;54.62;101609.38;5126350;28;20054;-65
2023/06/12 03:01:43;;;;;;;1.58;1.45;;;;;;;12.39;54.79;101610.28;5106752;28;20031;-65
2023/06/12 03:04:19;;;;;;;3.75;1.73;;;;;;;12.43;54.54;101610.28;5126261;28;20023;-64
2023/06/12 03:06:47;;;;;;;2.53;1.50;;;;;;;12.54;54.57;101611.16;5125903;28;20020;-64
2023/06/12 03:09:15;;;;;;;1.70;1.60;;;;;;;12.70;54.35;101611.22;5125910;28;20027;-64
2023/06/12 03:11:42;;;;;;;1.83;1.50;;;;;;;12.88;54.28;101599.94;5125914;28;20015;-66
2023/06/12 03:14:07;;;;;;;2.95;1.70;;;;;;;13.18;53.87;101608.66;5125951;28;20015;-65
2023/06/12 03:16:33;;;;;;;3.53;1.98;;;;;;;13.48;53.42;101606.91;5125583;28;20024;-66
2023/06/12 03:18:59;;;;;;;1.38;1.13;;;;;;;13.84;52.39;101606.88;5107367;28;20054;-65
2023/06/12 03:21:24;;;;;;;2.97;1.45;;;;;;;14.02;51.81;101605.06;5125364;28;20047;-65
2023/06/12 03:23:50;;;;;;;2.75;1.38;;;;;;;14.28;50.45;101601.47;5125988;28;20356;-65
2023/06/12 03:26:15;;;;;;;2.15;1.25;;;;;;;14.42;49.52;101605.78;5125687;28;20028;-65
2023/06/12 03:28:42;;;;;;;2.40;1.52;;;;;;;14.52;49.07;101596.13;5125792;28;20024;-65
2023/06/12 03:31:07;;;;;;;1.70;0.93;;;;;;;14.73;48.65;101601.22;5125635;28;20034;-65
2023/06/12 03:33:32;;;;;;;1.65;1.23;;;;;;;14.90;46.67;101599.41;5125763;28;20028;-65
2023/06/12 03:35:58;;;;;;;2.58;1.42;;;;;;;14.95;46.30;101606.31;5125202;28;20023;-65
2023/06/12 03:38:23;;;;;;;1.58;1.40;;;;;;;15.02;45.08;101593.19;5125654;28;20023;-65
2023/06/12 03:40:49;;;;;;;2.17;1.15;;;;;;;15.07;44.71;101602.75;5107229;28;20054;-64
2023/06/12 03:43:14;;;;;;;1.10;1.00;;;;;;;15.04;44.11;101602.78;5125555;28;20019;-65
2023/06/12 03:45:40;;;;;;;2.53;1.48;;;;;;;15.03;44.20;101601.03;5125569;28;20041;-64
2023/06/12 03:48:05;;;;;;;2.25;1.42;;;;;;;15.10;44.38;101599.25;5125542;28;20487;-65
2023/06/12 03:50:31;;;;;;;1.83;1.27;;;;;;;15.33;43.83;101604.28;5125378;28;20039;-64
2023/06/12 03:52:56;;;;;;;1.42;1.17;;;;;;;15.40;43.41;101592.00;5125655;28;20039;-65
2023/06/12 03:55:23;;;;;;;1.38;1.00;;;;;;;15.68;42.91;101606.56;5106928;28;20030;-65
2023/06/12 03:57:49;;;;;;;1.60;1.02;;;;;;;15.76;42.82;101611.72;5125284;28;20024;-64
2023/06/12 04:00:15;;;;;;;1.38;0.93;;;;;;;15.86;42.26;101606.34;5125611;28;20034;-63
2023/06/12 04:02:40;;;;;;;1.08;0.98;;;;;;;15.90;41.81;101601.09;5125255;28;20031;-65
2023/06/12 04:05:08;;;;;;;1.02;0.82;;;;;;;15.84;41.92;101608.16;5106814;28;20024;-64
2023/06/12 04:07:36;;;;;;;2.17;1.05;;;;;;;15.84;42.05;101597.66;5125220;28;20079;-65
2023/06/12 04:10:03;;;;;;;1.27;0.95;;;;;;;16.00;41.35;101596.63;5125453;28;20087;-65
2023/06/12 04:12:29;;;;;;;2.80;1.33;;;;;;;15.97;41.53;101598.41;5125250;28;20031;-66
2023/06/12 04:14:55;;;;;;;1.30;1.13;;;;;;;16.05;41.72;101592.22;5110888;28;20530;-65
2023/06/12 04:17:21;;;;;;;1.63;1.38;;;;;;;16.22;41.49;101595.50;5129049;28;20024;-64
2023/06/12 04:19:48;;;;;;;1.95;1.13;;;;;;;16.58;41.53;101584.50;5110546;28;20031;-66
2023/06/12 04:22:15;;;;;;;5.00;1.23;;;;;;;16.86;40.57;101591.09;5129331;28;20066;-65
2023/06/12 04:24:42;;;;;;;1.80;1.30;;;;;;;17.17;40.45;101595.84;5128985;28;20050;-65
2023/06/12 04:27:11;;;;;;;1.52;1.08;;;;;;;17.53;40.01;101584.72;5110489;28;20471;-66
2023/06/12 04:29:38;;;;;;;1.48;1.10;;;;;;;17.74;38.84;101592.22;5129083;28;20054;-66
2023/06/12 04:32:07;;;;;;;5.13;1.52;;;;;;;17.71;38.78;101588.78;5129068;28;20023;-65
2023/06/12 04:34:45;;;;;;;1.13;1.00;;;;;;;17.77;38.54;101579.91;5128716;28;20042;-65
2023/06/12 04:37:18;;;;;;;1.45;1.08;;;;;;;18.00;38.60;101596.97;5128676;28;20023;-64
2023/06/12 04:39:45;;;;;;;1.63;1.40;;;;;;;18.26;38.13;101589.47;5110225;28;20024;-64
2023/06/12 04:42:16;;;;;;;1.23;0.90;;;;;;;18.58;39.05;101586.09;5128092;28;20039;-63
2023/06/12 04:44:42;;;;;;;3.03;0.90;;;;;;;19.27;38.50;101588.84;5128707;28;20023;-65
2023/06/12 04:47:10;;;;;;;1.33;1.00;;;;;;;19.80;37.86;101590.94;5128542;28;20360;-64
2023/06/12 04:49:48;;;;;;;0.60;0.60;;;;;;;20.35;38.33;101584.06;5128115;28;20023;-64
2023/06/12 04:52:13;;;;;;;1.35;1.00;;;;;;;21.10;37.64;101581.72;5110368;28;20030;-63
2023/06/12 04:54:41;;;;;;;1.60;0.85;;;;;;;21.48;35.63;101581.28;5128356;28;20028;-64
2023/06/12 04:57:12;;;;;;;0.73;0.70;;;;;;;21.43;34.43;101583.22;5128726;28;20045;-64
2023/06/12 04:59:38;;;;;;;1.85;0.93;;;;;;;21.18;34.64;101584.09;5128745;28;20031;-65
2023/06/12 05:02:06;;;;;;;1.40;1.00;;;;;;;21.36;34.06;101587.03;5128508;28;20026;-65
2023/06/12 05:04:32;;;;;;;2.05;0.90;;;;;;;21.29;33.73;101589.84;5128359;28;20027;-68
2023/06/12 05:06:59;;;;;;;1.35;1.00;;;;;;;21.00;32.63;101578.53;5128330;28;20031;-65
2023/06/12 05:09:25;;;;;;;1.35;0.85;;;;;;;20.84;33.73;101577.28;5109967;28;20468;-65
2023/06/12 05:11:50;;;;;;;3.17;1.35;;;;;;;21.17;32.94;101591.16;5109460;28;20024;-64
2023/06/12 05:14:16;;;;;;;2.10;1.08;;;;;;;21.23;33.05;101582.13;5128197;28;20020;-65
2023/06/12 05:16:41;;;;;;;1.58;1.10;;;;;;;21.72;32.42;101583.97;5128104;28;20027;-60
2023/06/12 05:19:09;;;;;;;6.53;1.35;;;;;;;21.92;32.44;101587.66;5128060;28;20023;-61
2023/06/12 05:21:34;;;;;;;4.45;1.10;;;;;;;22.14;32.40;101584.22;5127749;28;20048;-61
2023/06/12 05:23:59;;;;;;;1.48;1.05;;;;;;;22.76;32.18;101588.84;5127895;28;20034;-65
2023/06/12 05:26:25;;;;;;;1.50;1.00;;;;;;;22.85;30.62;101591.13;5126838;28;20102;-60
2023/06/12 05:28:50;;;;;;;1.98;0.93;;;;;;;22.67;29.87;101581.31;5128009;28;20023;-59
2023/06/12 05:31:16;;;;;;;1.50;0.85;;;;;;;22.56;29.75;101584.38;5127793;28;20459;-61
2023/06/12 05:33:41;;;;;;;0.50;0.47;;;;;;;22.40;30.34;101588.47;5127806;28;20045;-60
2023/06/12 05:36:07;;;;;;;1.98;0.85;;;;;;;22.48;30.13;101574.06;5127603;28;20024;-59
2023/06/12 05:38:33;;;;;;;1.85;0.85;;;;;;;22.45;30.14;101560.94;5127495;28;20018;-61
2023/06/12 05:40:59;;;;;;;0.85;0.65;;;;;;;22.52;30.17;101571.22;5127817;28;20587;-60
2023/06/12 05:43:24;;;;;;;1.00;0.80;;;;;;;22.56;30.36;101585.19;5109469;28;20016;-61
2023/06/12 05:45:50;;;;;;;0.75;0.70;;;;;;;22.63;30.61;101581.44;5127728;28;20062;-61
2023/06/12 05:48:17;;;;;;;2.70;1.17;;;;;;;22.80;29.92;101581.63;5127663;28;20148;-60
2023/06/12 05:50:43;;;;;;;1.40;0.70;;;;;;;22.65;29.40;101582.22;5127399;28;20086;-60
2023/06/12 05:53:08;;;;;;;0.82;0.80;;;;;;;22.41;29.47;101568.19;5127550;28;20030;-60
2023/06/12 05:55:34;;;;;;;6.18;1.25;;;;;;;22.40;29.43;101582.31;5127588;28;20089;-59
2023/06/12 05:57:59;;;;;;;0.70;0.70;;;;;;;22.53;30.17;101575.63;5127719;28;20020;-59
2023/06/12 06:00:25;;;;;;;0.60;0.60;;;;;;;22.74;29.38;101578.34;5127529;28;20030;-60
2023/06/12 06:02:50;;;;;;;1.40;0.90;;;;;;;22.57;28.85;101575.50;5127292;28;20023;-60
2023/06/12 06:05:16;;;;;;;2.03;1.30;;;;;;;22.32;29.42;101577.31;5127234;28;20031;-59
2023/06/12 06:07:42;;;;;;;1.60;0.98;;;;;;;22.54;29.48;101576.44;5127067;28;20059;-59
2023/06/12 06:10:08;;;;;;;2.45;0.70;;;;;;;22.64;29.18;101579.63;5127202;28;20024;-59
2023/06/12 06:12:33;;;;;;;1.00;0.80;;;;;;;22.45;28.93;101576.81;5127270;28;20024;-60
2023/06/12 06:14:59;;;;;;;12.50;1.75;;;;;;;22.14;28.40;101574.47;5127167;28;20532;-60
2023/06/12 06:17:25;;;;;;;0.75;0.63;;;;;;;21.86;28.99;101577.31;5127330;28;20019;-60
2023/06/12 06:19:50;;;;;;;1.83;1.00;;;;;;;21.78;29.50;101586.41;5126890;28;20102;-60
2023/06/12 06:22:19;;;;;;;1.15;0.68;;;;;;;22.07;29.80;101574.78;5127149;28;20029;-60
2023/06/12 06:24:44;;;;;;;1.80;0.82;;;;;;;22.24;28.90;101580.28;5126868;28;20513;-60
2023/06/12 06:27:10;;;;;;;2.03;1.25;;;;;;;22.05;28.99;101580.13;5127078;28;20027;-60
2023/06/12 06:29:35;;;;;;;0.75;0.52;;;;;;;22.19;28.60;101594.59;5126886;28;20028;-59
2023/06/12 06:32:01;;;;;;;2.03;0.90;;;;;;;22.14;29.19;101581.56;5126776;28;20030;-58
2023/06/12 06:34:27;;;;;;;1.35;0.90;;;;;;;22.28;28.47;101581.03;5126715;28;20020;-59
2023/06/12 06:36:53;;;;;;;8.88;1.60;;;;;;;22.25;28.40;101581.97;5126402;28;20020;-59
2023/06/12 06:39:18;;;;;;;1.45;0.70;;;;;;;22.22;28.05;101570.69;5126763;28;20031;-60
2023/06/12 06:41:44;;;;;;;0.77;0.68;;;;;;;22.39;28.48;101585.88;5126630;28;20023;-59
2023/06/12 06:44:09;;;;;;;0.82;0.80;;;;;;;22.80;28.41;101586.94;5126743;28;20058;-60
2023/06/12 06:46:35;;;;;;;2.88;0.98;;;;;;;22.85;27.54;101591.13;5126401;28;20026;-60
2023/06/12 06:49:00;;;;;;;1.08;0.75;;;;;;;22.84;27.52;101593.84;5126582;28;20027;-59
2023/06/12 06:51:26;;;;;;;1.10;1.00;;;;;;;22.81;26.58;101588.66;5107964;28;20054;-59
2023/06/12 06:53:51;;;;;;;1.63;1.20;;;;;;;22.59;26.94;101586.88;5126440;28;20091;-60
2023/06/12 06:56:16;;;;;;;0.50;0.50;;;;;;;22.82;27.52;101580.66;5126175;28;20072;-59
2023/06/12 06:58:42;;;;;;;1.23;1.00;;;;;;;23.43;27.23;101599.31;5126384;28;20019;-60
2023/06/12 07:01:08;;;;;;;1.23;0.60;;;;;;;23.62;26.53;101590.53;5126304;28;20019;-59
2023/06/12 07:03:33;;;;;;;0.98;0.70;;;;;;;23.80;26.38;101585.34;5126132;28;20034;-59
2023/06/12 07:05:58;;;;;;;1.60;0.98;;;;;;;23.74;26.07;101591.75;5125954;28;20035;-61
2023/06/12 07:08:24;;;;;;;1.20;0.73;;;;;;;23.70;25.63;101585.75;5126146;28;20486;-60
2023/06/12 07:10:50;;;;;;;1.30;1.00;;;;;;;23.64;24.94;101586.03;5126069;28;20054;-59
2023/06/12 07:13:15;;;;;;;1.50;1.10;;;;;;;23.51;25.22;101583.91;5126193;28;20031;-61
2023/06/12 07:15:41;;;;;;;2.15;0.70;;;;;;;23.25;24.31;101595.63;5107944;28;20023;-60
2023/06/12 07:18:06;;;;;;;1.45;1.05;;;;;;;22.86;23.71;101589.34;5126251;28;20008;-59
2023/06/12 07:20:32;;;;;;;0.93;0.80;;;;;;;22.57;24.33;101571.06;5107688;28;20043;-58
2023/06/12 07:22:57;;;;;;;1.30;0.93;;;;;;;22.49;24.30;101568.69;5126045;28;20036;-61
2023/06/12 07:25:22;;;;;;;1.02;0.57;;;;;;;22.46;24.60;101568.81;5125993;28;20124;-59
2023/06/12 07:27:48;;;;;;;1.00;0.63;;;;;;;22.49;24.10;101574.00;5125847;28;20024;-61
2023/06/12 07:30:14;;;;;;;0.98;0.68;;;;;;;22.50;24.05;101567.81;5125943;28;20487;-60
2023/06/12 07:32:39;;;;;;;1.33;0.60;;;;;;;22.65;24.23;101566.31;5125715;28;20524;-59
2023/06/12 07:35:05;;;;;;;1.17;0.88;;;;;;;22.93;23.27;101572.25;5125704;28;20040;-61
2023/06/12 07:37:34;;;;;;;0.88;0.60;;;;;;;23.03;23.31;101572.75;5125555;28;20020;-60
2023/06/12 07:40:00;;;;;;;1.20;0.70;;;;;;;23.19;23.16;101561.47;5125923;28;20028;-60
2023/06/12 07:42:25;;;;;;;0.75;0.63;;;;;;;23.27;22.51;101576.09;5125649;28;20567;-59
2023/06/12 07:44:51;;;;;;;1.35;1.20;;;;;;;23.25;21.62;101562.06;5125815;28;20023;-60
2023/06/12 07:47:16;;;;;;;0.93;0.65;;;;;;;23.13;21.81;101566.09;5125995;28;20023;-59
2023/06/12 07:49:41;;;;;;;1.08;0.75;;;;;;;23.25;22.23;101558.56;5132047;28;20035;-59
2023/06/12 07:52:07;;;;;;;0.40;0.40;;;;;;;23.53;21.75;101565.31;5114325;28;20539;-58
2023/06/12 07:54:32;;;;;;;0.88;0.68;;;;;;;23.58;21.75;101557.16;5132404;28;20568;-60
2023/06/12 07:56:58;;;;;;;0.82;0.50;;;;;;;23.66;20.77;101565.59;5132731;28;20495;-60
2023/06/12 07:59:23;;;;;;;2.50;0.90;;;;;;;23.69;20.61;101557.50;5132345;28;20023;-59
2023/06/12 08:01:49;;;;;;;0.52;0.50;;;;;;;23.64;20.82;101555.06;5132232;28;20063;-60
2023/06/12 08:04:15;;;;;;;0.75;0.50;;;;;;;23.80;20.36;101556.16;5132426;28;20030;-58
2023/06/12 08:06:44;;;;;;;0.70;0.50;;;;;;;23.73;19.89;101560.88;5132082;28;20027;-59
2023/06/12 08:09:10;;;;;;;0.60;0.57;;;;;;;23.63;19.92;101550.72;5132447;28;20023;-60
2023/06/12 08:11:35;;;;;;;1.08;0.82;;;;;;;23.60;21.00;101553.50;5132186;28;20023;-59
2023/06/12 08:14:01;;;;;;;0.85;0.70;;;;;;;23.56;20.46;101543.13;5132445;28;20503;-59
2023/06/12 08:16:26;;;;;;;1.58;0.65;;;;;;;23.76;20.48;101545.72;5132401;28;20012;-59
2023/06/12 08:18:52;;;;;;;1.17;0.60;;;;;;;23.87;20.76;101541.69;5132376;28;20026;-59
2023/06/12 08:21:17;;;;;;;1.77;0.82;;;;;;;24.27;20.89;101533.66;5132057;27;20047;-59
2023/06/12 08:23:43;;;;;;;1.38;0.85;;;;;;;24.75;20.21;101549.00;5132151;28;20096;-59
2023/06/12 08:26:08;;;;;;;1.10;0.50;;;;;;;24.93;20.53;101541.94;5132117;28;20028;-59
2023/06/12 08:28:36;;;;;;;1.27;0.80;;;;;;;25.35;20.43;101539.75;5132194;28;20031;-60
2023/06/12 08:31:01;;;;;;;0.95;0.60;;;;;;;25.87;20.37;101526.41;5131978;28;20038;-59
2023/06/12 08:33:28;;;;;;;0.77;0.50;;;;;;;26.59;19.52;101525.91;5131857;28;20023;-58
2023/06/12 08:35:53;;;;;;;0.63;0.60;;;;;;;26.64;18.63;101530.94;5131943;28;20024;-59
2023/06/12 08:38:19;;;;;;;0.88;0.40;;;;;;;26.42;18.89;101526.03;5132171;28;20030;-59
2023/06/12 08:40:46;;;;;;;0.65;0.60;;;;;;;26.50;19.23;101526.44;5131975;28;20027;-59
2023/06/12 08:43:12;;;;;;;1.20;0.98;;;;;;;26.80;19.12;101530.03;5132094;28;20027;-58
2023/06/12 08:45:43;;;;;;;1.10;0.77;;;;;;;26.95;19.09;101523.78;5131998;28;20108;-59
2023/06/12 08:48:10;;;;;;;0.95;0.60;;;;;;;27.20;18.69;101527.66;5131827;28;20303;-59
2023/06/12 08:50:36;;;;;;;1.08;0.90;;;;;;;27.10;17.71;101519.34;5131831;28;20053;-60
2023/06/12 08:53:04;;;;;;;0.73;0.40;;;;;;;27.05;18.12;101509.91;5131935;28;20019;-60
2023/06/12 08:55:32;;;;;;;1.65;0.77;;;;;;;27.14;18.56;101505.84;5131875;28;20027;-59
2023/06/12 08:57:58;;;;;;;2.42;1.10;;;;;;;27.43;17.77;101517.34;5131954;28;20053;-60
2023/06/12 09:00:24;;;;;;;1.15;1.02;;;;;;;27.29;17.40;101514.69;5129384;28;20035;-60
2023/06/12 09:02:56;;;;;;;1.20;1.00;;;;;;;27.16;17.11;101511.91;5128659;28;20032;-59
2023/06/12 09:05:26;;;;;;;11.05;1.55;;;;;;;26.79;16.64;101501.69;5128415;28;20020;-59
2023/06/12 09:07:52;;;;;;;0.68;0.43;;;;;;;26.71;17.43;101507.47;5128540;28;20108;-59
2023/06/12 09:10:18;;;;;;;1.70;0.70;;;;;;;26.94;16.78;101497.22;5128665;28;20029;-59
2023/06/12 09:12:45;;;;;;;1.02;0.50;;;;;;;26.96;15.98;101498.88;5128629;28;20502;-59
2023/06/12 09:15:18;;;;;;;0.50;0.50;;;;;;;26.75;16.27;101503.66;5128547;28;20027;-59
2023/06/12 09:17:46;;;;;;;0.73;0.55;;;;;;;26.57;16.24;101482.53;5128341;28;20027;-59
2023/06/12 09:20:27;;;;;;;0.80;0.60;;;;;;;26.69;15.69;101507.56;5128157;28;20483;-59
2023/06/12 09:23:06;;;;;;;0.57;0.57;;;;;;;26.58;16.11;101500.19;5128369;28;20095;-59
2023/06/12 09:25:43;;;;;;;0.90;0.73;;;;;;;26.85;15.70;101491.50;5128398;28;20039;-59
2023/06/12 09:28:10;;;;;;;0.90;0.60;;;;;;;27.06;14.97;101491.16;5128276;28;20087;-60
2023/06/12 09:30:43;;;;;;;1.40;0.60;;;;;;;27.08;15.55;101491.06;5128249;28;20032;-60
2023/06/12 09:33:08;;;;;;;0.38;0.35;;;;;;;27.21;15.70;101488.50;5128168;28;20019;-59
2023/06/12 09:35:53;;;;;;;0.88;0.65;;;;;;;27.71;15.62;101478.28;5127896;28;20125;-59
2023/06/12 09:38:33;;;;;;;0.35;0.30;;;;;;;28.18;14.45;101483.25;5128168;28;20022;-59
2023/06/12 09:41:01;;;;;;;0.40;0.40;;;;;;;28.43;14.77;101494.13;5127945;28;20016;-60
2023/06/12 09:43:27;;;;;;;0.50;0.40;;;;;;;28.78;14.95;101472.16;5127653;28;20076;-58
2023/06/12 09:45:53;;;;;;;0.75;0.50;;;;;;;29.12;13.96;101471.66;5127953;28;20024;-58
2023/06/12 09:48:19;;;;;;;0.93;0.70;;;;;;;29.41;13.00;101476.72;5127859;28;20048;-59
2023/06/12 09:50:46;;;;;;;0.93;0.63;;;;;;;29.82;13.17;101471.16;5127627;28;20020;-60
2023/06/12 09:53:16;;;;;;;0.50;0.30;;;;;;;29.58;12.77;101479.16;5127732;28;20026;-58
2023/06/12 09:55:44;;;;;;;0.65;0.63;;;;;;;29.24;12.89;101469.03;5127753;28;20050;-58
2023/06/12 09:58:13;;;;;;;0.45;0.30;;;;;;;29.38;13.59;101462.72;5127655;28;20031;-58
2023/06/12 10:00:39;;;;;;;0.65;0.40;;;;;;;30.20;13.78;101460.38;5127715;28;20076;-60
2023/06/12 10:03:09;;;;;;;0.50;0.40;;;;;;;30.48;12.43;101466.31;5127533;28;20016;-59
2023/06/12 10:05:37;;;;;;;0.40;0.30;;;;;;;30.09;12.15;101454.00;5127589;28;20161;-59
2023/06/12 10:08:06;;;;;;;0.98;0.60;;;;;;;29.56;11.82;101463.19;5127530;28;20149;-59
2023/06/12 10:10:34;;;;;;;0.60;0.40;;;;;;;28.91;12.44;101455.28;5108919;28;20083;-59
2023/06/12 10:13:01;;;;;;;0.95;0.60;;;;;;;28.95;12.58;101456.75;5127476;28;20095;-60
2023/06/12 10:15:28;;;;;;;0.40;0.40;;;;;;;29.02;12.34;101455.41;5127333;28;20106;-60
2023/06/12 10:17:54;;;;;;;0.60;0.50;;;;;;;29.15;12.11;101457.22;5127258;28;20087;-59
2023/06/12 10:20:20;;;;;;;1.67;0.50;;;;;;;28.76;12.28;101454.53;5127019;28;20044;-60
2023/06/12 10:22:47;;;;;;;0.70;0.55;;;;;;;28.35;12.34;101459.94;5127344;28;20043;-60
2023/06/12 10:25:14;;;;;;;0.98;0.50;;;;;;;28.04;12.49;101462.81;5127170;28;20098;-59
2023/06/12 10:27:41;;;;;;;3.75;0.95;;;;;;;28.09;12.46;101458.03;5108525;28;20043;-59
2023/06/12 10:30:26;;;;;;;0.40;0.40;;;;;;;27.86;13.19;101445.38;5127175;28;20020;-59
2023/06/12 10:32:52;;;;;;;0.70;0.50;;;;;;;28.13;13.56;101450.66;5125169;28;20032;-59
2023/06/12 10:35:31;;;;;;;2.00;1.10;;;;;;;28.11;13.27;101446.41;5126742;28;20030;-59
2023/06/12 10:37:56;;;;;;;2.15;0.63;;;;;;;28.33;13.56;101440.50;5126874;28;20023;-59
2023/06/12 10:40:23;;;;;;;0.57;0.43;;;;;;;28.85;13.32;101447.69;5126851;28;20062;-59
2023/06/12 10:42:51;;;;;;;0.65;0.60;;;;;;;28.74;13.57;101432.41;5126529;28;20023;-59
2023/06/12 10:45:25;;;;;;;0.93;0.60;;;;;;;28.73;13.40;101430.69;5126897;28;20051;-58
2023/06/12 10:48:02;;;;;;;0.57;0.55;;;;;;;28.70;13.35;101431.78;5126219;28;20030;-59
2023/06/12 10:50:29;;;;;;;0.60;0.50;;;;;;;29.19;13.45;101431.94;5126381;28;20357;-60
2023/06/12 10:53:01;;;;;;;1.55;0.65;;;;;;;29.01;12.35;101428.78;5126448;28;20464;-59
2023/06/12 10:55:27;;;;;;;0.45;0.40;;;;;;;28.55;12.64;101431.00;5126388;28;20031;-60
2023/06/12 10:57:53;;;;;;;1.73;0.57;;;;;;;28.27;12.43;101430.22;5126393;28;20038;-59
2023/06/12 11:00:23;;;;;;;0.68;0.50;;;;;;;27.10;13.31;101436.75;5126549;28;20019;-59
2023/06/12 11:02:59;;;;;;;0.65;0.60;;;;;;;26.10;14.26;101429.28;5125984;28;20410;-60
2023/06/12 11:05:26;;;;;;;0.90;0.50;;;;;;;25.56;14.92;101416.41;5126026;28;20016;-59
2023/06/12 11:07:55;;;;;;;0.60;0.47;;;;;;;25.24;15.18;101411.94;5126152;28;20081;-59
2023/06/12 11:10:21;;;;;;;1.80;0.80;;;;;;;25.13;14.94;101423.13;5126414;28;20128;-59
2023/06/12 11:12:47;;;;;;;0.93;0.80;;;;;;;24.98;15.28;101424.84;5126273;28;20034;-58
2023/06/12 11:15:13;;;;;;;2.17;0.93;;;;;;;24.59;15.61;101413.53;5126283;28;20024;-59
2023/06/12 11:17:39;;;;;;;0.63;0.40;;;;;;;24.42;15.78;101414.41;5125978;28;20020;-58
2023/06/12 11:20:08;;;;;;;1.67;0.80;;;;;;;24.34;15.84;101412.16;5125715;28;20104;-60
2023/06/12 11:22:33;;;;;;;0.35;0.35;;;;;;;24.47;15.75;101396.47;5125425;28;20111;-59
2023/06/12 11:25:06;;;;;;;2.63;0.63;;;;;;;24.55;15.82;101404.03;5107740;28;20034;-59